sensor_id;sensor_type;location;lat;lon;timestamp;P1;durP1;ratioP1;P2;durP2;ratioP2
45887;SDS011;31595;51.418;7.572;2024-02-21T00:00:34;20.92;;;11.27;;
45887;SDS011;31595;51.418;7.572;2024-02-21T00:03:00;25.42;;;11.55;;
45887;SDS011;31595;51.418;7.572;2024-02-21T00:05:29;19.63;;;11.68;;
45887;SDS011;31595;51.418;7.572;2024-02-21T00:07:57;22.42;;;11.93;;
45887;SDS011;31595;51.418;7.572;2024-02-21T00:10:24;16.88;;;10.35;;
45887;SDS011;31595;51.418;7.572;2024-02-21T00:12:51;23.98;;;10.98;;
45887;SDS011;31595;51.418;7.572;2024-02-21T00:15:17;21.83;;;11.57;;
45887;SDS011;31595;51.418;7.572;2024-02-21T00:17:46;19.88;;;10.75;;
45887;SDS011;31595;51.418;7.572;2024-02-21T00:20:13;18.45;;;10.57;;
45887;SDS011;31595;51.418;7.572;2024-02-21T00:22:40;23.00;;;11.50;;
45887;SDS011;31595;51.418;7.572;2024-02-21T00:25:07;23.48;;;10.73;;
45887;SDS011;31595;51.418;7.572;2024-02-21T00:27:34;21.95;;;10.82;;
45887;SDS011;31595;51.418;7.572;2024-02-21T00:30:01;19.77;;;10.85;;
45887;SDS011;31595;51.418;7.572;2024-02-21T00:32:28;20.15;;;10.30;;
45887;SDS011;31595;51.418;7.572;2024-02-21T00:34:56;19.60;;;11.07;;
45887;SDS011;31595;51.418;7.572;2024-02-21T00:37:23;16.98;;;10.18;;
45887;SDS011;31595;51.418;7.572;2024-02-21T00:39:49;24.15;;;10.82;;
45887;SDS011;31595;51.418;7.572;2024-02-21T00:42:16;18.73;;;11.02;;
45887;SDS011;31595;51.418;7.572;2024-02-21T00:44:43;21.80;;;10.63;;
45887;SDS011;31595;51.418;7.572;2024-02-21T00:47:10;19.77;;;11.07;;
45887;SDS011;31595;51.418;7.572;2024-02-21T00:49:37;20.95;;;10.55;;
45887;SDS011;31595;51.418;7.572;2024-02-21T00:52:05;16.92;;;10.20;;
45887;SDS011;31595;51.418;7.572;2024-02-21T00:54:32;19.23;;;10.10;;
45887;SDS011;31595;51.418;7.572;2024-02-21T00:56:58;17.45;;;10.05;;
45887;SDS011;31595;51.418;7.572;2024-02-21T00:59:25;19.25;;;10.45;;
45887;SDS011;31595;51.418;7.572;2024-02-21T01:01:52;17.20;;;10.20;;
45887;SDS011;31595;51.418;7.572;2024-02-21T01:04:19;21.88;;;11.25;;
45887;SDS011;31595;51.418;7.572;2024-02-21T01:06:46;21.48;;;10.85;;
45887;SDS011;31595;51.418;7.572;2024-02-21T01:09:14;20.42;;;10.75;;
45887;SDS011;31595;51.418;7.572;2024-02-21T01:11:41;20.50;;;9.95;;
45887;SDS011;31595;51.418;7.572;2024-02-21T01:14:07;18.10;;;10.50;;
45887;SDS011;31595;51.418;7.572;2024-02-21T01:16:34;18.70;;;10.60;;
45887;SDS011;31595;51.418;7.572;2024-02-21T01:19:01;19.77;;;9.90;;
45887;SDS011;31595;51.418;7.572;2024-02-21T01:21:28;19.35;;;11.23;;
45887;SDS011;31595;51.418;7.572;2024-02-21T01:23:55;20.08;;;9.77;;
45887;SDS011;31595;51.418;7.572;2024-02-21T01:26:23;18.83;;;10.10;;
45887;SDS011;31595;51.418;7.572;2024-02-21T01:28:50;18.05;;;9.90;;
45887;SDS011;31595;51.418;7.572;2024-02-21T01:31:17;18.35;;;9.88;;
45887;SDS011;31595;51.418;7.572;2024-02-21T01:33:44;15.38;;;10.00;;
45887;SDS011;31595;51.418;7.572;2024-02-21T01:36:11;19.63;;;10.73;;
45887;SDS011;31595;51.418;7.572;2024-02-21T01:38:38;21.73;;;10.48;;
45887;SDS011;31595;51.418;7.572;2024-02-21T01:41:04;18.85;;;10.38;;
45887;SDS011;31595;51.418;7.572;2024-02-21T01:43:33;20.13;;;9.85;;
45887;SDS011;31595;51.418;7.572;2024-02-21T01:45:59;20.58;;;10.27;;
45887;SDS011;31595;51.418;7.572;2024-02-21T01:48:26;16.80;;;9.68;;
45887;SDS011;31595;51.418;7.572;2024-02-21T01:50:54;23.60;;;10.48;;
45887;SDS011;31595;51.418;7.572;2024-02-21T01:53:21;21.80;;;9.77;;
45887;SDS011;31595;51.418;7.572;2024-02-21T01:55:49;22.63;;;9.48;;
45887;SDS011;31595;51.418;7.572;2024-02-21T01:58:16;21.05;;;10.43;;
45887;SDS011;31595;51.418;7.572;2024-02-21T02:00:46;16.73;;;9.73;;
45887;SDS011;31595;51.418;7.572;2024-02-21T02:03:13;16.83;;;9.50;;
45887;SDS011;31595;51.418;7.572;2024-02-21T02:05:43;21.38;;;9.82;;
45887;SDS011;31595;51.418;7.572;2024-02-21T02:08:10;18.15;;;9.60;;
45887;SDS011;31595;51.418;7.572;2024-02-21T02:10:37;20.27;;;9.40;;
45887;SDS011;31595;51.418;7.572;2024-02-21T02:13:04;18.95;;;9.70;;
45887;SDS011;31595;51.418;7.572;2024-02-21T02:15:37;19.88;;;8.63;;
45887;SDS011;31595;51.418;7.572;2024-02-21T02:18:05;16.05;;;8.88;;
45887;SDS011;31595;51.418;7.572;2024-02-21T02:20:32;18.70;;;9.80;;
45887;SDS011;31595;51.418;7.572;2024-02-21T02:22:59;17.27;;;8.80;;
45887;SDS011;31595;51.418;7.572;2024-02-21T02:25:27;16.00;;;8.90;;
45887;SDS011;31595;51.418;7.572;2024-02-21T02:27:54;19.40;;;8.98;;
45887;SDS011;31595;51.418;7.572;2024-02-21T02:30:20;17.45;;;9.07;;
45887;SDS011;31595;51.418;7.572;2024-02-21T02:32:47;16.65;;;9.38;;
45887;SDS011;31595;51.418;7.572;2024-02-21T02:35:14;18.77;;;9.63;;
45887;SDS011;31595;51.418;7.572;2024-02-21T02:37:47;16.73;;;8.63;;
45887;SDS011;31595;51.418;7.572;2024-02-21T02:40:16;17.90;;;9.05;;
45887;SDS011;31595;51.418;7.572;2024-02-21T02:45:11;18.52;;;8.60;;
45887;SDS011;31595;51.418;7.572;2024-02-21T02:47:39;19.13;;;9.63;;
45887;SDS011;31595;51.418;7.572;2024-02-21T02:50:06;19.38;;;9.95;;
45887;SDS011;31595;51.418;7.572;2024-02-21T02:52:33;14.98;;;9.30;;
45887;SDS011;31595;51.418;7.572;2024-02-21T02:55:00;16.65;;;10.00;;
45887;SDS011;31595;51.418;7.572;2024-02-21T02:57:27;17.55;;;9.43;;
45887;SDS011;31595;51.418;7.572;2024-02-21T02:59:54;20.55;;;9.52;;
45887;SDS011;31595;51.418;7.572;2024-02-21T03:02:22;21.48;;;10.18;;
45887;SDS011;31595;51.418;7.572;2024-02-21T03:04:49;15.48;;;8.80;;
45887;SDS011;31595;51.418;7.572;2024-02-21T03:07:16;15.68;;;8.77;;
45887;SDS011;31595;51.418;7.572;2024-02-21T03:09:43;18.58;;;8.73;;
45887;SDS011;31595;51.418;7.572;2024-02-21T03:12:09;17.40;;;8.50;;
45887;SDS011;31595;51.418;7.572;2024-02-21T03:14:36;18.58;;;10.13;;
45887;SDS011;31595;51.418;7.572;2024-02-21T03:17:03;18.25;;;9.88;;
45887;SDS011;31595;51.418;7.572;2024-02-21T03:19:31;17.65;;;9.38;;
45887;SDS011;31595;51.418;7.572;2024-02-21T03:21:58;14.50;;;8.70;;
45887;SDS011;31595;51.418;7.572;2024-02-21T03:24:25;13.20;;;8.45;;
45887;SDS011;31595;51.418;7.572;2024-02-21T03:26:52;13.68;;;8.20;;
45887;SDS011;31595;51.418;7.572;2024-02-21T03:29:18;20.20;;;9.25;;
45887;SDS011;31595;51.418;7.572;2024-02-21T03:31:45;15.55;;;8.30;;
45887;SDS011;31595;51.418;7.572;2024-02-21T03:34:12;17.05;;;8.80;;
45887;SDS011;31595;51.418;7.572;2024-02-21T03:36:40;17.38;;;8.55;;
45887;SDS011;31595;51.418;7.572;2024-02-21T03:39:07;15.07;;;8.52;;
45887;SDS011;31595;51.418;7.572;2024-02-21T03:41:34;16.45;;;9.00;;
45887;SDS011;31595;51.418;7.572;2024-02-21T03:44:01;17.38;;;9.20;;
45887;SDS011;31595;51.418;7.572;2024-02-21T03:46:28;15.10;;;8.88;;
45887;SDS011;31595;51.418;7.572;2024-02-21T03:48:54;16.48;;;8.80;;
45887;SDS011;31595;51.418;7.572;2024-02-21T03:51:21;17.17;;;8.90;;
45887;SDS011;31595;51.418;7.572;2024-02-21T03:53:49;15.88;;;8.50;;
45887;SDS011;31595;51.418;7.572;2024-02-21T03:56:16;18.65;;;9.30;;
45887;SDS011;31595;51.418;7.572;2024-02-21T03:58:43;17.70;;;8.75;;
45887;SDS011;31595;51.418;7.572;2024-02-21T04:01:10;17.23;;;9.63;;
45887;SDS011;31595;51.418;7.572;2024-02-21T04:03:37;13.77;;;8.13;;
45887;SDS011;31595;51.418;7.572;2024-02-21T04:06:04;16.67;;;8.57;;
45887;SDS011;31595;51.418;7.572;2024-02-21T04:08:31;16.25;;;9.60;;
45887;SDS011;31595;51.418;7.572;2024-02-21T04:10:59;13.50;;;8.10;;
45887;SDS011;31595;51.418;7.572;2024-02-21T04:13:26;15.63;;;8.63;;
45887;SDS011;31595;51.418;7.572;2024-02-21T04:15:53;18.13;;;8.55;;
45887;SDS011;31595;51.418;7.572;2024-02-21T04:18:20;18.95;;;8.52;;
45887;SDS011;31595;51.418;7.572;2024-02-21T04:20:47;16.98;;;8.27;;
45887;SDS011;31595;51.418;7.572;2024-02-21T04:23:14;15.77;;;8.02;;
45887;SDS011;31595;51.418;7.572;2024-02-21T04:25:40;14.85;;;8.80;;
45887;SDS011;31595;51.418;7.572;2024-02-21T04:28:08;16.30;;;8.02;;
45887;SDS011;31595;51.418;7.572;2024-02-21T04:30:35;16.88;;;8.70;;
45887;SDS011;31595;51.418;7.572;2024-02-21T04:33:02;11.77;;;7.18;;
45887;SDS011;31595;51.418;7.572;2024-02-21T04:35:29;16.60;;;8.15;;
45887;SDS011;31595;51.418;7.572;2024-02-21T04:37:56;15.98;;;8.55;;
45887;SDS011;31595;51.418;7.572;2024-02-21T04:40:23;16.23;;;9.95;;
45887;SDS011;31595;51.418;7.572;2024-02-21T04:42:49;14.85;;;8.63;;
45887;SDS011;31595;51.418;7.572;2024-02-21T04:45:18;13.60;;;7.82;;
45887;SDS011;31595;51.418;7.572;2024-02-21T04:47:44;13.45;;;8.18;;
45887;SDS011;31595;51.418;7.572;2024-02-21T04:50:11;11.55;;;7.97;;
45887;SDS011;31595;51.418;7.572;2024-02-21T04:52:38;18.88;;;9.02;;
45887;SDS011;31595;51.418;7.572;2024-02-21T04:55:05;14.98;;;7.93;;
45887;SDS011;31595;51.418;7.572;2024-02-21T04:57:32;15.68;;;8.30;;
45887;SDS011;31595;51.418;7.572;2024-02-21T04:59:59;16.17;;;7.65;;
45887;SDS011;31595;51.418;7.572;2024-02-21T05:02:27;15.48;;;8.10;;
45887;SDS011;31595;51.418;7.572;2024-02-21T05:04:54;17.25;;;7.88;;
45887;SDS011;31595;51.418;7.572;2024-02-21T05:07:21;14.95;;;7.85;;
45887;SDS011;31595;51.418;7.572;2024-02-21T05:09:48;15.77;;;8.00;;
45887;SDS011;31595;51.418;7.572;2024-02-21T05:12:15;13.52;;;7.63;;
45887;SDS011;31595;51.418;7.572;2024-02-21T05:14:42;14.07;;;7.93;;
45887;SDS011;31595;51.418;7.572;2024-02-21T05:17:09;15.15;;;8.00;;
45887;SDS011;31595;51.418;7.572;2024-02-21T05:19:37;16.58;;;7.95;;
45887;SDS011;31595;51.418;7.572;2024-02-21T05:22:04;12.05;;;7.00;;
45887;SDS011;31595;51.418;7.572;2024-02-21T05:24:31;15.02;;;7.45;;
45887;SDS011;31595;51.418;7.572;2024-02-21T05:26:57;13.63;;;7.10;;
45887;SDS011;31595;51.418;7.572;2024-02-21T05:29:24;15.55;;;7.40;;
45887;SDS011;31595;51.418;7.572;2024-02-21T05:31:54;15.25;;;7.25;;
45887;SDS011;31595;51.418;7.572;2024-02-21T05:34:21;13.73;;;6.85;;
45887;SDS011;31595;51.418;7.572;2024-02-21T05:36:49;13.30;;;7.13;;
45887;SDS011;31595;51.418;7.572;2024-02-21T05:39:16;13.85;;;7.50;;
45887;SDS011;31595;51.418;7.572;2024-02-21T05:41:43;12.00;;;7.18;;
45887;SDS011;31595;51.418;7.572;2024-02-21T05:44:10;12.40;;;6.63;;
45887;SDS011;31595;51.418;7.572;2024-02-21T05:46:36;14.82;;;6.78;;
45887;SDS011;31595;51.418;7.572;2024-02-21T05:49:03;13.93;;;7.05;;
45887;SDS011;31595;51.418;7.572;2024-02-21T05:51:32;13.40;;;7.22;;
45887;SDS011;31595;51.418;7.572;2024-02-21T05:54:00;15.55;;;6.63;;
45887;SDS011;31595;51.418;7.572;2024-02-21T05:56:27;12.30;;;6.55;;
45887;SDS011;31595;51.418;7.572;2024-02-21T05:58:53;12.90;;;6.78;;
45887;SDS011;31595;51.418;7.572;2024-02-21T06:01:20;17.17;;;7.05;;
45887;SDS011;31595;51.418;7.572;2024-02-21T06:03:47;15.95;;;7.57;;
45887;SDS011;31595;51.418;7.572;2024-02-21T06:06:14;13.32;;;7.55;;
45887;SDS011;31595;51.418;7.572;2024-02-21T06:08:41;13.05;;;6.65;;
45887;SDS011;31595;51.418;7.572;2024-02-21T06:11:09;12.80;;;6.95;;
45887;SDS011;31595;51.418;7.572;2024-02-21T06:13:37;11.10;;;6.63;;
45887;SDS011;31595;51.418;7.572;2024-02-21T06:16:05;11.50;;;6.25;;
45887;SDS011;31595;51.418;7.572;2024-02-21T06:18:32;15.65;;;6.68;;
45887;SDS011;31595;51.418;7.572;2024-02-21T06:20:59;14.82;;;6.72;;
45887;SDS011;31595;51.418;7.572;2024-02-21T06:23:25;11.05;;;6.22;;
45887;SDS011;31595;51.418;7.572;2024-02-21T06:25:52;10.13;;;6.13;;
45887;SDS011;31595;51.418;7.572;2024-02-21T06:28:19;12.95;;;6.50;;
45887;SDS011;31595;51.418;7.572;2024-02-21T06:30:46;11.27;;;6.28;;
45887;SDS011;31595;51.418;7.572;2024-02-21T06:33:13;12.25;;;6.72;;
45887;SDS011;31595;51.418;7.572;2024-02-21T06:35:40;12.73;;;6.38;;
45887;SDS011;31595;51.418;7.572;2024-02-21T06:38:08;13.88;;;6.38;;
45887;SDS011;31595;51.418;7.572;2024-02-21T06:40:35;9.10;;;5.85;;
45887;SDS011;31595;51.418;7.572;2024-02-21T06:45:32;9.40;;;5.40;;
45887;SDS011;31595;51.418;7.572;2024-02-21T06:47:59;11.20;;;5.35;;
45887;SDS011;31595;51.418;7.572;2024-02-21T06:50:26;8.95;;;5.50;;
45887;SDS011;31595;51.418;7.572;2024-02-21T06:52:52;10.73;;;5.32;;
45887;SDS011;31595;51.418;7.572;2024-02-21T06:55:19;12.38;;;5.90;;
45887;SDS011;31595;51.418;7.572;2024-02-21T06:57:46;10.93;;;5.78;;
45887;SDS011;31595;51.418;7.572;2024-02-21T07:00:14;13.75;;;5.50;;
45887;SDS011;31595;51.418;7.572;2024-02-21T07:02:43;10.95;;;5.28;;
45887;SDS011;31595;51.418;7.572;2024-02-21T07:05:09;10.18;;;5.57;;
45887;SDS011;31595;51.418;7.572;2024-02-21T07:07:36;13.27;;;5.95;;
45887;SDS011;31595;51.418;7.572;2024-02-21T07:10:03;11.60;;;6.40;;
45887;SDS011;31595;51.418;7.572;2024-02-21T07:12:30;12.73;;;6.10;;
45887;SDS011;31595;51.418;7.572;2024-02-21T07:14:57;11.10;;;5.65;;
45887;SDS011;31595;51.418;7.572;2024-02-21T07:17:23;12.65;;;6.47;;
45887;SDS011;31595;51.418;7.572;2024-02-21T07:19:52;12.05;;;6.05;;
45887;SDS011;31595;51.418;7.572;2024-02-21T07:22:22;12.30;;;5.80;;
45887;SDS011;31595;51.418;7.572;2024-02-21T07:24:49;9.60;;;6.18;;
45887;SDS011;31595;51.418;7.572;2024-02-21T07:27:15;12.60;;;5.70;;
45887;SDS011;31595;51.418;7.572;2024-02-21T07:29:42;10.32;;;5.55;;
45887;SDS011;31595;51.418;7.572;2024-02-21T07:32:12;10.18;;;5.53;;
45887;SDS011;31595;51.418;7.572;2024-02-21T07:34:39;11.60;;;6.10;;
45887;SDS011;31595;51.418;7.572;2024-02-21T07:37:07;10.80;;;5.75;;
45887;SDS011;31595;51.418;7.572;2024-02-21T07:39:35;11.90;;;6.07;;
45887;SDS011;31595;51.418;7.572;2024-02-21T07:42:02;13.70;;;6.40;;
45887;SDS011;31595;51.418;7.572;2024-02-21T07:44:29;12.68;;;6.35;;
45887;SDS011;31595;51.418;7.572;2024-02-21T07:46:57;11.95;;;6.20;;
45887;SDS011;31595;51.418;7.572;2024-02-21T07:49:24;10.00;;;5.88;;
45887;SDS011;31595;51.418;7.572;2024-02-21T07:51:51;13.40;;;6.47;;
45887;SDS011;31595;51.418;7.572;2024-02-21T07:54:19;11.43;;;5.65;;
45887;SDS011;31595;51.418;7.572;2024-02-21T07:56:46;12.25;;;5.95;;
45887;SDS011;31595;51.418;7.572;2024-02-21T07:59:13;10.70;;;6.07;;
45887;SDS011;31595;51.418;7.572;2024-02-21T08:01:40;12.77;;;6.72;;
45887;SDS011;31595;51.418;7.572;2024-02-21T08:04:07;15.70;;;7.53;;
45887;SDS011;31595;51.418;7.572;2024-02-21T08:06:34;11.38;;;6.80;;
45887;SDS011;31595;51.418;7.572;2024-02-21T08:09:01;15.35;;;6.78;;
45887;SDS011;31595;51.418;7.572;2024-02-21T08:11:29;12.93;;;6.30;;
45887;SDS011;31595;51.418;7.572;2024-02-21T08:13:56;10.98;;;6.70;;
45887;SDS011;31595;51.418;7.572;2024-02-21T08:16:23;13.73;;;7.18;;
45887;SDS011;31595;51.418;7.572;2024-02-21T08:18:51;14.25;;;7.40;;
45887;SDS011;31595;51.418;7.572;2024-02-21T08:21:18;12.55;;;7.32;;
45887;SDS011;31595;51.418;7.572;2024-02-21T08:23:44;12.27;;;6.68;;
45887;SDS011;31595;51.418;7.572;2024-02-21T08:26:11;13.45;;;6.72;;
45887;SDS011;31595;51.418;7.572;2024-02-21T08:28:39;10.27;;;6.50;;
45887;SDS011;31595;51.418;7.572;2024-02-21T08:31:06;10.55;;;5.78;;
45887;SDS011;31595;51.418;7.572;2024-02-21T08:33:33;12.05;;;6.32;;
45887;SDS011;31595;51.418;7.572;2024-02-21T08:36:00;9.98;;;5.50;;
45887;SDS011;31595;51.418;7.572;2024-02-21T08:38:26;9.52;;;5.43;;
45887;SDS011;31595;51.418;7.572;2024-02-21T08:40:53;8.77;;;5.35;;
45887;SDS011;31595;51.418;7.572;2024-02-21T08:43:20;9.68;;;5.32;;
45887;SDS011;31595;51.418;7.572;2024-02-21T08:45:48;11.30;;;6.00;;
45887;SDS011;31595;51.418;7.572;2024-02-21T08:48:15;8.50;;;5.18;;
45887;SDS011;31595;51.418;7.572;2024-02-21T08:50:42;10.18;;;5.28;;
45887;SDS011;31595;51.418;7.572;2024-02-21T08:53:08;8.60;;;5.60;;
45887;SDS011;31595;51.418;7.572;2024-02-21T08:55:35;10.95;;;6.93;;
45887;SDS011;31595;51.418;7.572;2024-02-21T08:58:02;11.77;;;6.32;;
45887;SDS011;31595;51.418;7.572;2024-02-21T09:00:29;13.50;;;6.32;;
45887;SDS011;31595;51.418;7.572;2024-02-21T09:02:58;13.63;;;7.45;;
45887;SDS011;31595;51.418;7.572;2024-02-21T09:05:24;10.45;;;7.75;;
45887;SDS011;31595;51.418;7.572;2024-02-21T09:07:51;13.75;;;7.95;;
45887;SDS011;31595;51.418;7.572;2024-02-21T09:10:18;12.20;;;7.53;;
45887;SDS011;31595;51.418;7.572;2024-02-21T09:12:45;11.38;;;7.53;;
45887;SDS011;31595;51.418;7.572;2024-02-21T09:15:12;11.88;;;7.50;;
45887;SDS011;31595;51.418;7.572;2024-02-21T09:17:42;12.80;;;6.80;;
45887;SDS011;31595;51.418;7.572;2024-02-21T09:20:11;11.38;;;7.13;;
45887;SDS011;31595;51.418;7.572;2024-02-21T09:22:39;12.77;;;5.55;;
45887;SDS011;31595;51.418;7.572;2024-02-21T09:25:07;14.85;;;5.22;;
45887;SDS011;31595;51.418;7.572;2024-02-21T09:27:35;8.97;;;5.10;;
45887;SDS011;31595;51.418;7.572;2024-02-21T09:30:02;11.05;;;4.97;;
45887;SDS011;31595;51.418;7.572;2024-02-21T09:32:30;11.85;;;4.78;;
45887;SDS011;31595;51.418;7.572;2024-02-21T09:34:58;14.10;;;5.15;;
45887;SDS011;31595;51.418;7.572;2024-02-21T09:37:26;8.82;;;4.40;;
45887;SDS011;31595;51.418;7.572;2024-02-21T09:39:53;9.18;;;4.57;;
45887;SDS011;31595;51.418;7.572;2024-02-21T09:42:20;10.02;;;4.70;;
45887;SDS011;31595;51.418;7.572;2024-02-21T09:44:48;10.75;;;4.85;;
45887;SDS011;31595;51.418;7.572;2024-02-21T09:47:17;9.38;;;4.30;;
45887;SDS011;31595;51.418;7.572;2024-02-21T09:49:44;12.82;;;4.53;;
45887;SDS011;31595;51.418;7.572;2024-02-21T09:52:11;9.60;;;4.85;;
45887;SDS011;31595;51.418;7.572;2024-02-21T09:54:41;9.70;;;4.68;;
45887;SDS011;31595;51.418;7.572;2024-02-21T09:57:10;12.82;;;5.00;;
45887;SDS011;31595;51.418;7.572;2024-02-21T09:59:37;10.82;;;4.75;;
45887;SDS011;31595;51.418;7.572;2024-02-21T10:02:04;8.75;;;4.70;;
45887;SDS011;31595;51.418;7.572;2024-02-21T10:04:32;11.57;;;5.22;;
45887;SDS011;31595;51.418;7.572;2024-02-21T10:06:58;13.07;;;5.50;;
45887;SDS011;31595;51.418;7.572;2024-02-21T10:09:26;10.45;;;4.82;;
45887;SDS011;31595;51.418;7.572;2024-02-21T10:11:54;11.43;;;4.97;;
45887;SDS011;31595;51.418;7.572;2024-02-21T10:14:21;10.45;;;5.13;;
45887;SDS011;31595;51.418;7.572;2024-02-21T10:16:48;14.35;;;5.25;;
45887;SDS011;31595;51.418;7.572;2024-02-21T10:19:16;10.32;;;5.35;;
45887;SDS011;31595;51.418;7.572;2024-02-21T10:21:42;11.18;;;5.22;;
45887;SDS011;31595;51.418;7.572;2024-02-21T10:24:11;12.05;;;5.20;;
45887;SDS011;31595;51.418;7.572;2024-02-21T10:26:38;13.55;;;5.35;;
45887;SDS011;31595;51.418;7.572;2024-02-21T10:29:06;12.25;;;4.90;;
45887;SDS011;31595;51.418;7.572;2024-02-21T10:31:33;13.30;;;4.78;;
45887;SDS011;31595;51.418;7.572;2024-02-21T10:34:00;15.13;;;5.07;;
45887;SDS011;31595;51.418;7.572;2024-02-21T10:36:29;11.65;;;5.25;;
45887;SDS011;31595;51.418;7.572;2024-02-21T10:38:55;9.88;;;4.88;;
45887;SDS011;31595;51.418;7.572;2024-02-21T10:41:23;10.02;;;5.07;;
45887;SDS011;31595;51.418;7.572;2024-02-21T10:43:50;9.95;;;4.90;;
45887;SDS011;31595;51.418;7.572;2024-02-21T10:46:20;11.70;;;5.00;;
45887;SDS011;31595;51.418;7.572;2024-02-21T10:48:48;12.43;;;5.60;;
45887;SDS011;31595;51.418;7.572;2024-02-21T10:51:15;8.85;;;4.55;;
45887;SDS011;31595;51.418;7.572;2024-02-21T10:53:45;10.75;;;4.47;;
45887;SDS011;31595;51.418;7.572;2024-02-21T10:56:16;12.95;;;4.95;;
45887;SDS011;31595;51.418;7.572;2024-02-21T10:58:48;12.02;;;4.25;;
45887;SDS011;31595;51.418;7.572;2024-02-21T11:01:15;8.85;;;4.80;;
45887;SDS011;31595;51.418;7.572;2024-02-21T11:03:45;8.52;;;4.13;;
45887;SDS011;31595;51.418;7.572;2024-02-21T11:06:12;9.10;;;3.92;;
45887;SDS011;31595;51.418;7.572;2024-02-21T11:08:39;9.90;;;4.28;;
45887;SDS011;31595;51.418;7.572;2024-02-21T11:11:06;10.32;;;4.43;;
45887;SDS011;31595;51.418;7.572;2024-02-21T11:13:35;7.57;;;3.75;;
45887;SDS011;31595;51.418;7.572;2024-02-21T11:16:08;8.57;;;3.95;;
45887;SDS011;31595;51.418;7.572;2024-02-21T11:18:36;10.13;;;4.25;;
45887;SDS011;31595;51.418;7.572;2024-02-21T11:21:04;9.60;;;4.07;;
45887;SDS011;31595;51.418;7.572;2024-02-21T11:23:31;9.45;;;4.00;;
45887;SDS011;31595;51.418;7.572;2024-02-21T11:26:05;7.80;;;3.90;;
45887;SDS011;31595;51.418;7.572;2024-02-21T11:28:32;7.13;;;3.47;;
45887;SDS011;31595;51.418;7.572;2024-02-21T11:31:06;10.15;;;4.18;;
45887;SDS011;31595;51.418;7.572;2024-02-21T11:33:33;9.35;;;3.80;;
45887;SDS011;31595;51.418;7.572;2024-02-21T11:36:00;8.73;;;3.80;;
45887;SDS011;31595;51.418;7.572;2024-02-21T11:38:28;8.20;;;3.63;;
45887;SDS011;31595;51.418;7.572;2024-02-21T11:40:55;8.32;;;3.83;;
45887;SDS011;31595;51.418;7.572;2024-02-21T11:43:22;9.30;;;4.30;;
45887;SDS011;31595;51.418;7.572;2024-02-21T11:45:48;10.95;;;3.92;;
45887;SDS011;31595;51.418;7.572;2024-02-21T11:48:15;7.53;;;3.72;;
45887;SDS011;31595;51.418;7.572;2024-02-21T11:50:42;8.93;;;3.92;;
45887;SDS011;31595;51.418;7.572;2024-02-21T11:53:09;9.57;;;3.55;;
45887;SDS011;31595;51.418;7.572;2024-02-21T11:55:37;6.88;;;3.95;;
45887;SDS011;31595;51.418;7.572;2024-02-21T11:58:04;9.98;;;4.00;;
45887;SDS011;31595;51.418;7.572;2024-02-21T12:00:31;9.60;;;4.00;;
45887;SDS011;31595;51.418;7.572;2024-02-21T12:02:58;7.70;;;3.92;;
45887;SDS011;31595;51.418;7.572;2024-02-21T12:05:27;8.40;;;4.00;;
45887;SDS011;31595;51.418;7.572;2024-02-21T12:07:54;6.47;;;3.70;;
45887;SDS011;31595;51.418;7.572;2024-02-21T12:10:21;8.35;;;3.47;;
45887;SDS011;31595;51.418;7.572;2024-02-21T12:12:49;8.95;;;3.90;;
45887;SDS011;31595;51.418;7.572;2024-02-21T12:15:17;9.38;;;4.00;;
45887;SDS011;31595;51.418;7.572;2024-02-21T12:17:47;8.55;;;4.05;;
45887;SDS011;31595;51.418;7.572;2024-02-21T12:20:14;8.32;;;3.60;;
45887;SDS011;31595;51.418;7.572;2024-02-21T12:22:41;8.20;;;4.10;;
45887;SDS011;31595;51.418;7.572;2024-02-21T12:25:15;10.18;;;4.45;;
45887;SDS011;31595;51.418;7.572;2024-02-21T12:27:43;8.85;;;3.72;;
45887;SDS011;31595;51.418;7.572;2024-02-21T12:30:11;9.00;;;3.90;;
45887;SDS011;31595;51.418;7.572;2024-02-21T12:32:38;9.07;;;3.97;;
45887;SDS011;31595;51.418;7.572;2024-02-21T12:35:06;10.80;;;3.72;;
45887;SDS011;31595;51.418;7.572;2024-02-21T12:37:33;10.13;;;4.10;;
45887;SDS011;31595;51.418;7.572;2024-02-21T12:40:00;9.13;;;3.65;;
45887;SDS011;31595;51.418;7.572;2024-02-21T12:42:32;9.30;;;3.53;;
45887;SDS011;31595;51.418;7.572;2024-02-21T12:44:59;8.55;;;3.55;;
45887;SDS011;31595;51.418;7.572;2024-02-21T12:47:27;8.13;;;3.25;;
45887;SDS011;31595;51.418;7.572;2024-02-21T12:49:54;6.78;;;3.05;;
45887;SDS011;31595;51.418;7.572;2024-02-21T12:52:21;9.27;;;3.38;;
45887;SDS011;31595;51.418;7.572;2024-02-21T12:54:47;8.50;;;3.53;;
45887;SDS011;31595;51.418;7.572;2024-02-21T12:57:16;8.63;;;3.83;;
45887;SDS011;31595;51.418;7.572;2024-02-21T12:59:44;7.95;;;3.05;;
45887;SDS011;31595;51.418;7.572;2024-02-21T13:02:10;7.57;;;3.40;;
45887;SDS011;31595;51.418;7.572;2024-02-21T13:04:39;8.48;;;3.63;;
45887;SDS011;31595;51.418;7.572;2024-02-21T13:07:06;8.18;;;3.22;;
45887;SDS011;31595;51.418;7.572;2024-02-21T13:09:33;7.72;;;3.45;;
45887;SDS011;31595;51.418;7.572;2024-02-21T13:12:00;7.95;;;3.10;;
45887;SDS011;31595;51.418;7.572;2024-02-21T13:14:27;9.50;;;3.53;;
45887;SDS011;31595;51.418;7.572;2024-02-21T13:16:54;10.73;;;3.92;;
45887;SDS011;31595;51.418;7.572;2024-02-21T13:19:21;9.13;;;3.25;;
45887;SDS011;31595;51.418;7.572;2024-02-21T13:21:49;7.30;;;3.20;;
45887;SDS011;31595;51.418;7.572;2024-02-21T13:24:16;10.50;;;3.45;;
45887;SDS011;31595;51.418;7.572;2024-02-21T13:26:43;7.90;;;3.33;;
45887;SDS011;31595;51.418;7.572;2024-02-21T13:29:09;7.85;;;3.72;;
45887;SDS011;31595;51.418;7.572;2024-02-21T13:31:37;8.88;;;3.33;;
45887;SDS011;31595;51.418;7.572;2024-02-21T13:34:04;7.15;;;3.78;;
45887;SDS011;31595;51.418;7.572;2024-02-21T13:36:30;9.05;;;3.38;;
45887;SDS011;31595;51.418;7.572;2024-02-21T13:38:59;8.77;;;4.10;;
45887;SDS011;31595;51.418;7.572;2024-02-21T13:41:25;8.38;;;4.18;;
45887;SDS011;31595;51.418;7.572;2024-02-21T13:43:53;9.73;;;4.10;;
45887;SDS011;31595;51.418;7.572;2024-02-21T13:46:20;9.00;;;3.60;;
45887;SDS011;31595;51.418;7.572;2024-02-21T13:48:47;10.27;;;3.95;;
45887;SDS011;31595;51.418;7.572;2024-02-21T13:51:14;9.15;;;3.80;;
45887;SDS011;31595;51.418;7.572;2024-02-21T13:53:42;8.43;;;4.20;;
45887;SDS011;31595;51.418;7.572;2024-02-21T13:56:10;9.05;;;3.65;;
45887;SDS011;31595;51.418;7.572;2024-02-21T13:58:37;10.95;;;3.60;;
45887;SDS011;31595;51.418;7.572;2024-02-21T14:01:04;7.85;;;3.72;;
45887;SDS011;31595;51.418;7.572;2024-02-21T14:03:30;10.52;;;4.10;;
45887;SDS011;31595;51.418;7.572;2024-02-21T14:05:58;8.30;;;3.60;;
45887;SDS011;31595;51.418;7.572;2024-02-21T14:08:25;8.95;;;3.03;;
45887;SDS011;31595;51.418;7.572;2024-02-21T14:10:51;7.63;;;3.13;;
45887;SDS011;31595;51.418;7.572;2024-02-21T14:13:20;7.18;;;3.50;;
45887;SDS011;31595;51.418;7.572;2024-02-21T14:15:46;6.00;;;3.17;;
45887;SDS011;31595;51.418;7.572;2024-02-21T14:18:15;9.13;;;3.65;;
45887;SDS011;31595;51.418;7.572;2024-02-21T14:20:42;7.70;;;3.83;;
45887;SDS011;31595;51.418;7.572;2024-02-21T14:23:09;9.73;;;3.83;;
45887;SDS011;31595;51.418;7.572;2024-02-21T14:25:36;7.65;;;3.40;;
45887;SDS011;31595;51.418;7.572;2024-02-21T14:28:05;9.38;;;4.00;;
45887;SDS011;31595;51.418;7.572;2024-02-21T14:30:33;5.93;;;3.10;;
45887;SDS011;31595;51.418;7.572;2024-02-21T14:33:00;8.63;;;3.47;;
45887;SDS011;31595;51.418;7.572;2024-02-21T14:35:27;8.30;;;3.97;;
45887;SDS011;31595;51.418;7.572;2024-02-21T14:37:54;7.90;;;3.40;;
45887;SDS011;31595;51.418;7.572;2024-02-21T14:40:22;7.40;;;3.35;;